createdAt,value
2023-02-08T00:02:25.646Z,20.23
2023-02-08T00:04:55.807Z,22.65
2023-02-08T00:07:25.799Z,23.63
2023-02-08T00:09:55.679Z,20.97
2023-02-08T00:12:25.683Z,25.55
2023-02-08T00:14:55.488Z,20.80
2023-02-08T00:17:25.293Z,26.00
2023-02-08T00:19:55.160Z,20.87
2023-02-08T00:22:24.808Z,20.33
2023-02-08T00:24:54.829Z,18.40
2023-02-08T00:27:24.598Z,18.67
2023-02-08T00:29:54.645Z,20.02
2023-02-08T00:32:24.167Z,20.40
2023-02-08T00:34:53.933Z,20.93
2023-02-08T00:37:23.577Z,23.65
2023-02-08T00:39:53.373Z,22.83
2023-02-08T00:42:26.339Z,24.00
2023-02-08T00:44:56.198Z,20.43
2023-02-08T00:47:26.502Z,21.20
2023-02-08T00:49:56.334Z,19.27
2023-02-08T00:52:26.593Z,22.50
2023-02-08T00:54:56.100Z,19.65
2023-02-08T00:57:25.949Z,22.60
2023-02-08T00:59:55.770Z,26.37
2023-02-08T01:02:25.243Z,19.95
2023-02-08T01:04:55.105Z,20.73
2023-02-08T01:07:24.933Z,27.70
2023-02-08T01:09:54.801Z,22.40
2023-02-08T01:12:24.914Z,21.33
2023-02-08T01:14:54.679Z,24.23
2023-02-08T01:17:24.421Z,22.22
2023-02-08T01:19:54.263Z,22.77
2023-02-08T01:22:23.869Z,23.80
2023-02-08T01:24:54.097Z,23.98
2023-02-08T01:27:24.265Z,24.02
2023-02-08T01:29:54.308Z,21.23
2023-02-08T01:32:24.237Z,25.43
2023-02-08T01:34:54.368Z,21.40
2023-02-08T01:37:24.126Z,22.57
2023-02-08T01:39:53.886Z,25.13
2023-02-08T01:42:23.526Z,25.85
2023-02-08T01:45:23.214Z,27.17
2023-02-08T01:47:56.206Z,21.30
2023-02-08T01:50:30.077Z,22.43
2023-02-08T01:53:00.386Z,20.70
2023-02-08T01:55:36.244Z,31.73
2023-02-08T01:58:11.081Z,24.96
2023-02-08T02:00:40.932Z,20.50
2023-02-08T02:03:12.878Z,22.97
2023-02-08T02:05:45.963Z,23.97
2023-02-08T02:08:16.044Z,25.08
2023-02-08T02:10:47.306Z,31.03
2023-02-08T02:13:22.656Z,21.83
2023-02-08T02:15:53.275Z,24.27
2023-02-08T02:18:28.740Z,24.13
2023-02-08T02:21:16.678Z,24.00
2023-02-08T02:24:08.672Z,27.17
2023-02-08T02:26:57.498Z,21.17
2023-02-08T02:29:46.657Z,21.43
2023-02-08T02:32:33.006Z,23.57
2023-02-08T02:35:17.685Z,21.10
2023-02-08T02:38:06.683Z,22.75
2023-02-08T02:40:39.819Z,20.70
2023-02-08T02:43:42.907Z,22.40
2023-02-08T02:46:24.361Z,23.47
2023-02-08T02:49:16.717Z,22.53
2023-02-08T02:52:00.934Z,19.00
2023-02-08T02:54:33.798Z,22.90
2023-02-08T02:57:06.432Z,19.60
2023-02-08T02:59:38.170Z,17.87
2023-02-08T03:02:10.894Z,20.65
2023-02-08T03:04:49.426Z,21.87
2023-02-08T03:07:39.804Z,21.23
2023-02-08T03:10:30.848Z,25.64
2023-02-08T03:13:03.803Z,22.03
2023-02-08T03:15:50.658Z,18.47
2023-02-08T03:21:02.355Z,23.20
2023-02-08T03:23:34.929Z,22.03
2023-02-08T03:29:16.912Z,25.45
2023-02-08T03:31:52.771Z,22.23
2023-02-08T03:34:41.674Z,23.07
2023-02-08T03:37:14.501Z,21.07
2023-02-08T03:39:46.320Z,23.77
2023-02-08T03:42:18.991Z,24.67
2023-02-08T03:44:54.391Z,23.30
2023-02-08T03:47:30.063Z,22.30
2023-02-08T03:50:03.192Z,21.47
2023-02-08T03:52:33.618Z,21.10
2023-02-08T03:55:06.488Z,19.47
2023-02-08T03:57:57.498Z,22.35
2023-02-08T04:00:27.730Z,23.00
2023-02-08T04:03:00.584Z,24.00
2023-02-08T04:05:30.783Z,25.20
2023-02-08T04:08:00.582Z,20.77
2023-02-08T04:10:30.264Z,20.65
2023-02-08T04:13:00.265Z,21.20
2023-02-08T04:15:30.238Z,24.20
2023-02-08T04:18:00.120Z,22.63
2023-02-08T04:20:30.205Z,24.23
2023-02-08T04:23:00.011Z,22.97
2023-02-08T04:25:29.825Z,22.47
2023-02-08T04:27:59.881Z,24.50
2023-02-08T04:30:29.724Z,25.12
2023-02-08T04:33:00.131Z,21.87
2023-02-08T04:35:30.013Z,26.00
2023-02-08T04:37:59.818Z,26.10
2023-02-08T04:40:29.748Z,24.80
2023-02-08T04:42:59.598Z,23.27
2023-02-08T04:45:31.374Z,28.77
2023-02-08T04:48:03.830Z,24.53
2023-02-08T04:50:34.379Z,26.90
2023-02-08T04:53:04.134Z,25.37
2023-02-08T04:55:34.068Z,23.40
2023-02-08T04:58:05.192Z,26.10
2023-02-08T05:00:34.985Z,23.33
2023-02-08T05:03:04.909Z,22.33
2023-02-08T05:05:34.690Z,27.47
2023-02-08T05:08:06.924Z,21.58
2023-02-08T05:10:36.702Z,24.17
2023-02-08T05:13:06.576Z,25.30
2023-02-08T05:15:36.408Z,26.00
2023-02-08T05:18:08.261Z,25.97
2023-02-08T05:20:38.239Z,21.70
2023-02-08T05:23:08.166Z,27.43
2023-02-08T05:25:40.333Z,22.95
2023-02-08T05:28:11.619Z,23.53
2023-02-08T05:30:41.860Z,24.20
2023-02-08T05:33:11.818Z,25.77
2023-02-08T05:35:41.901Z,25.43
2023-02-08T05:38:11.997Z,25.10
2023-02-08T05:40:42.413Z,28.53
2023-02-08T05:43:12.547Z,26.42
2023-02-08T05:45:42.411Z,25.70
2023-02-08T05:48:14.262Z,22.70
2023-02-08T05:50:44.109Z,24.87
2023-02-08T05:53:15.966Z,22.43
2023-02-08T05:55:48.647Z,26.30
2023-02-08T05:58:18.495Z,21.73
2023-02-08T06:00:48.347Z,20.87
2023-02-08T06:03:18.297Z,23.60
2023-02-08T06:05:48.156Z,24.00
2023-02-08T06:08:17.910Z,27.55
2023-02-08T06:10:50.123Z,22.17
2023-02-08T06:13:19.895Z,22.23
2023-02-08T06:15:50.049Z,28.00
2023-02-08T06:18:20.115Z,24.23
2023-02-08T06:20:49.932Z,26.27
2023-02-08T06:23:19.669Z,24.73
2023-02-08T06:25:49.613Z,21.40
2023-02-08T06:28:19.566Z,22.27
2023-02-08T06:30:51.407Z,20.63
2023-02-08T06:33:21.598Z,20.97
2023-02-08T06:35:54.943Z,20.90
2023-02-08T06:38:24.781Z,25.73
2023-02-08T06:40:54.577Z,22.07
2023-02-08T06:43:24.728Z,20.88
2023-02-08T06:45:54.634Z,19.37
2023-02-08T06:48:24.188Z,21.60
2023-02-08T06:50:55.372Z,21.40
2023-02-08T06:53:25.157Z,21.80
2023-02-08T06:55:55.555Z,22.30
2023-02-08T06:58:25.169Z,18.93
2023-02-08T07:00:54.979Z,23.07
2023-02-08T07:03:24.789Z,20.10
2023-02-08T07:06:04.407Z,24.80
2023-02-08T07:08:25.792Z,17.50
2023-02-08T07:10:55.559Z,23.03
2023-02-08T07:13:25.639Z,19.23
2023-02-08T07:15:55.690Z,21.82
2023-02-08T07:18:25.567Z,20.35
2023-02-08T07:20:55.395Z,16.97
2023-02-08T07:23:25.233Z,17.60
2023-02-08T07:26:03.424Z,17.70
2023-02-08T07:28:33.421Z,19.30
2023-02-08T07:31:08.946Z,38.70
2023-02-08T07:33:39.356Z,18.43
2023-02-08T07:36:12.120Z,19.47
2023-02-08T07:38:41.890Z,22.47
2023-02-08T07:41:14.297Z,18.10
2023-02-08T07:43:44.425Z,15.73
2023-02-08T07:46:22.272Z,19.55
2023-02-08T07:48:52.890Z,18.77
2023-02-08T07:51:22.984Z,18.33
2023-02-08T07:53:52.905Z,22.00
2023-02-08T07:56:22.654Z,20.80
2023-02-08T07:58:52.678Z,21.37
2023-02-08T08:01:23.179Z,19.87
2023-02-08T08:03:53.962Z,21.97
2023-02-08T08:06:24.512Z,20.88
2023-02-08T08:08:54.633Z,21.10
2023-02-08T08:11:24.552Z,17.50
2023-02-08T08:13:54.384Z,16.00
2023-02-08T08:16:24.164Z,21.42
2023-02-08T08:18:54.023Z,25.53
2023-02-08T08:21:23.845Z,16.83
2023-02-08T08:23:55.400Z,22.53
2023-02-08T08:26:25.316Z,20.65
2023-02-08T08:28:55.191Z,19.67
2023-02-08T08:31:25.173Z,21.13
2023-02-08T08:33:56.449Z,17.90
2023-02-08T08:36:26.557Z,23.45
2023-02-08T08:38:56.700Z,22.25
2023-02-08T08:41:27.347Z,20.20
2023-02-08T08:43:57.171Z,20.57
2023-02-08T08:46:26.773Z,15.63
2023-02-08T08:48:57.018Z,20.23
2023-02-08T08:51:26.773Z,20.33
2023-02-08T08:53:56.991Z,24.07
2023-02-08T08:56:26.525Z,18.98
2023-02-08T08:58:56.304Z,18.30
2023-02-08T09:01:26.164Z,19.93
2023-02-08T09:03:55.934Z,20.50
2023-02-08T09:06:25.826Z,16.70
2023-02-08T09:08:55.401Z,20.30
2023-02-08T09:11:25.280Z,18.83
2023-02-08T09:13:56.317Z,18.37
2023-02-08T09:16:26.473Z,18.60
2023-02-08T09:18:56.352Z,16.17
2023-02-08T09:21:26.098Z,18.13
2023-02-08T09:23:56.013Z,19.60
2023-02-08T09:26:26.488Z,16.57
2023-02-08T09:28:56.819Z,16.23
2023-02-08T09:31:29.723Z,21.83
2023-02-08T09:34:01.818Z,23.53
2023-02-08T09:36:34.902Z,17.03
2023-02-08T09:39:19.665Z,21.03
2023-02-08T09:42:01.239Z,21.30
2023-02-08T09:45:07.103Z,17.00
2023-02-08T09:47:39.060Z,18.50
2023-02-08T09:50:17.016Z,18.50
2023-02-08T09:52:55.096Z,15.15
2023-02-08T09:55:39.742Z,16.63
2023-02-08T09:58:26.366Z,20.30
2023-02-08T10:00:56.708Z,19.83
2023-02-08T10:03:42.449Z,15.60
2023-02-08T10:06:17.990Z,17.00
2023-02-08T10:08:51.057Z,17.40
2023-02-08T10:13:57.073Z,19.65
2023-02-08T10:16:42.073Z,14.73
2023-02-08T10:19:34.113Z,17.60
2023-02-08T10:22:08.404Z,16.50
2023-02-08T10:24:44.029Z,17.80
2023-02-08T10:27:19.632Z,13.53
2023-02-08T10:30:01.015Z,17.40
2023-02-08T10:32:53.240Z,13.80
2023-02-08T10:35:36.426Z,21.70
2023-02-08T10:38:24.972Z,15.13
2023-02-08T10:41:00.814Z,14.33
2023-02-08T10:43:40.235Z,15.97
2023-02-08T10:46:30.522Z,13.70
2023-02-08T10:49:09.021Z,16.13
2023-02-08T10:51:39.015Z,17.80
2023-02-08T10:54:15.632Z,15.13
2023-02-08T10:56:51.502Z,14.58
2023-02-08T10:59:27.092Z,14.83
2023-02-08T11:01:59.224Z,15.83
2023-02-08T11:04:29.377Z,16.47
2023-02-08T11:06:59.405Z,12.90
2023-02-08T11:09:31.692Z,15.80
2023-02-08T11:12:03.209Z,12.97
2023-02-08T11:14:47.093Z,11.03
2023-02-08T11:17:25.160Z,15.13
2023-02-08T11:19:55.092Z,11.00
2023-02-08T11:22:28.887Z,11.50
2023-02-08T11:25:05.434Z,11.90
2023-02-08T11:27:39.044Z,13.17
2023-02-08T11:30:20.168Z,14.10
2023-02-08T11:32:52.361Z,11.50
2023-02-08T11:35:24.522Z,12.15
2023-02-08T11:37:59.648Z,9.37
2023-02-08T11:40:40.378Z,13.68
2023-02-08T11:43:21.954Z,9.27
2023-02-08T11:45:53.260Z,12.20
2023-02-08T11:48:40.730Z,12.27
2023-02-08T11:51:13.255Z,11.77
2023-02-08T11:53:46.139Z,11.33
2023-02-08T11:56:19.136Z,8.88
2023-02-08T11:59:03.657Z,10.20
2023-02-08T12:01:39.254Z,9.83
2023-02-08T12:04:16.780Z,9.80
2023-02-08T12:06:58.566Z,8.03
2023-02-08T12:10:03.009Z,12.73
2023-02-08T12:12:50.636Z,8.70
2023-02-08T12:15:32.555Z,8.93
2023-02-08T12:18:24.774Z,12.53
2023-02-08T12:21:00.212Z,8.93
2023-02-08T12:23:41.633Z,9.53
2023-02-08T12:26:20.305Z,7.67
2023-02-08T12:28:55.730Z,10.67
2023-02-08T12:31:33.898Z,8.83
2023-02-08T12:37:38.274Z,10.40
2023-02-08T12:40:46.936Z,10.35
2023-02-08T12:43:54.392Z,7.37
2023-02-08T12:49:27.469Z,7.75
2023-02-08T12:52:08.166Z,9.30
2023-02-08T12:55:09.315Z,7.22
2023-02-08T12:57:41.535Z,10.53
2023-02-08T13:00:23.423Z,9.25
2023-02-08T13:02:59.291Z,8.60
2023-02-08T13:05:32.202Z,7.75
2023-02-08T13:08:04.995Z,9.23
2023-02-08T13:10:46.506Z,7.43
2023-02-08T13:13:22.271Z,7.17
2023-02-08T13:16:05.984Z,11.55
2023-02-08T13:18:38.952Z,7.90
2023-02-08T13:21:11.784Z,6.87
2023-02-08T13:23:52.724Z,8.07
2023-02-08T13:26:24.113Z,8.40
2023-02-08T13:28:57.842Z,8.97
2023-02-08T13:31:34.390Z,10.70
2023-02-08T13:34:21.138Z,8.62
2023-02-08T13:36:59.723Z,11.90
2023-02-08T13:39:40.823Z,10.35
2023-02-08T13:42:35.240Z,9.03
2023-02-08T13:45:07.898Z,10.30
2023-02-08T13:47:43.754Z,11.03
2023-02-08T13:50:35.240Z,10.34
2023-02-08T13:53:06.376Z,7.47
2023-02-08T13:55:54.225Z,7.53
2023-02-08T13:58:39.368Z,10.32
2023-02-08T14:01:28.725Z,10.27
2023-02-08T14:04:13.968Z,13.58
2023-02-08T14:06:46.819Z,6.43
2023-02-08T14:09:19.751Z,8.50
2023-02-08T14:11:52.944Z,7.73
2023-02-08T14:14:34.464Z,8.13
2023-02-08T14:17:09.858Z,7.57
2023-02-08T14:19:43.022Z,10.38
2023-02-08T14:22:15.880Z,6.28
2023-02-08T14:24:51.461Z,8.37
2023-02-08T14:27:39.745Z,7.37
2023-02-08T14:30:35.853Z,7.68
2023-02-08T14:33:08.748Z,6.10
2023-02-08T14:35:44.052Z,5.47
2023-02-08T14:38:45.384Z,9.88
2023-02-08T14:41:33.186Z,5.87
2023-02-08T14:44:06.099Z,6.17
2023-02-08T14:46:42.274Z,7.07
2023-02-08T14:49:18.233Z,5.35
2023-02-08T14:54:48.650Z,6.27
2023-02-08T14:57:31.587Z,6.60
2023-02-08T15:00:04.504Z,5.93
2023-02-08T15:02:37.367Z,9.13
2023-02-08T15:05:11.049Z,5.33
2023-02-08T15:07:45.393Z,5.57
2023-02-08T15:10:18.739Z,6.93
2023-02-08T15:12:54.101Z,8.47
2023-02-08T15:15:29.102Z,10.15
2023-02-08T15:17:59.647Z,4.50
2023-02-08T15:20:31.739Z,4.87
2023-02-08T15:23:04.333Z,7.27
2023-02-08T15:25:38.697Z,6.27
2023-02-08T15:28:21.916Z,8.78
2023-02-08T15:30:57.647Z,8.23
2023-02-08T15:33:27.948Z,3.72
2023-02-08T15:36:00.797Z,7.03
2023-02-08T15:38:31.582Z,10.77
2023-02-08T15:41:10.222Z,5.73
2023-02-08T15:43:42.204Z,9.53
2023-02-08T15:46:26.819Z,9.77
2023-02-08T15:48:57.430Z,6.40
2023-02-08T15:51:28.757Z,5.57
2023-02-08T15:53:59.059Z,10.82
2023-02-08T15:56:38.015Z,6.67
2023-02-08T15:59:06.566Z,7.92
2023-02-08T16:01:36.703Z,6.07
2023-02-08T16:04:09.788Z,7.90
2023-02-08T16:06:42.614Z,9.73
2023-02-08T16:09:21.265Z,7.67
2023-02-08T16:11:52.380Z,6.77
2023-02-08T16:14:29.332Z,7.80
2023-02-08T16:16:59.408Z,5.50
2023-02-08T16:19:34.333Z,12.43
2023-02-08T16:22:21.849Z,12.80
2023-02-08T16:24:52.052Z,7.08
2023-02-08T16:27:33.700Z,7.90
2023-02-08T16:30:04.035Z,11.03
2023-02-08T16:32:39.618Z,14.27
2023-02-08T16:35:17.584Z,8.17
2023-02-08T16:37:48.802Z,7.85
2023-02-08T16:40:40.494Z,6.73
2023-02-08T16:43:22.855Z,9.03
2023-02-08T16:46:11.971Z,9.80
2023-02-08T16:48:44.664Z,19.42
2023-02-08T16:51:17.742Z,13.33
2023-02-08T16:53:47.584Z,8.33
2023-02-08T16:56:19.053Z,5.63
2023-02-08T16:58:48.819Z,8.23
2023-02-08T17:01:23.449Z,11.60
2023-02-08T17:03:53.907Z,11.83
2023-02-08T17:06:35.818Z,13.40
2023-02-08T17:09:09.026Z,12.23
2023-02-08T17:11:38.961Z,10.97
2023-02-08T17:14:10.902Z,8.95
2023-02-08T17:16:41.364Z,8.83
2023-02-08T17:19:14.206Z,8.53
2023-02-08T17:21:43.967Z,7.90
2023-02-08T17:24:13.642Z,11.70
2023-02-08T17:26:45.416Z,7.60
2023-02-08T17:29:15.408Z,5.97
2023-02-08T17:31:45.777Z,7.92
2023-02-08T17:34:17.483Z,7.47
2023-02-08T17:36:47.218Z,4.70
2023-02-08T17:39:17.743Z,4.70
2023-02-08T17:41:47.964Z,5.85
2023-02-08T17:44:19.113Z,11.10
2023-02-08T17:46:48.926Z,15.37
2023-02-08T17:49:18.871Z,16.70
2023-02-08T17:51:48.643Z,13.97
2023-02-08T17:54:19.473Z,14.03
2023-02-08T17:56:50.660Z,13.07
2023-02-08T17:59:20.647Z,13.30
2023-02-08T18:01:50.989Z,14.27
2023-02-08T18:04:21.130Z,16.27
2023-02-08T18:06:51.001Z,12.70
2023-02-08T18:09:20.789Z,10.53
2023-02-08T18:11:52.174Z,8.73
2023-02-08T18:14:22.029Z,12.60
2023-02-08T18:16:51.976Z,12.80
2023-02-08T18:19:22.314Z,8.48
2023-02-08T18:21:52.243Z,11.60
2023-02-08T18:24:21.737Z,12.68
2023-02-08T18:26:51.620Z,14.53
2023-02-08T18:29:28.742Z,16.00
2023-02-08T18:31:58.709Z,14.40
2023-02-08T18:34:28.342Z,11.85
2023-02-08T18:36:58.088Z,13.97
2023-02-08T18:39:28.336Z,13.80
2023-02-08T18:41:58.467Z,16.95
2023-02-08T18:44:28.090Z,15.13
2023-02-08T18:46:57.993Z,14.87
2023-02-08T18:49:27.763Z,16.07
2023-02-08T18:51:57.992Z,16.70
2023-02-08T18:54:27.811Z,15.13
2023-02-08T18:56:59.877Z,14.33
2023-02-08T18:59:29.699Z,14.97
2023-02-08T19:01:59.647Z,12.30
2023-02-08T19:04:29.769Z,9.40
2023-02-08T19:06:59.798Z,10.82
2023-02-08T19:09:29.333Z,11.50
2023-02-08T19:11:59.401Z,12.53
2023-02-08T19:14:29.706Z,11.97
2023-02-08T19:16:59.604Z,11.80
2023-02-08T19:19:29.495Z,13.80
2023-02-08T19:21:59.438Z,16.20
2023-02-08T19:24:29.190Z,14.07
2023-02-08T19:26:58.952Z,15.37
2023-02-08T19:29:28.877Z,18.67
2023-02-08T19:31:59.194Z,14.45
2023-02-08T19:34:28.997Z,13.63
2023-02-08T19:36:59.046Z,16.45
2023-02-08T19:39:29.066Z,12.73
2023-02-08T19:41:59.261Z,12.07
2023-02-08T19:44:30.633Z,19.40
2023-02-08T19:47:00.457Z,17.17
2023-02-08T19:49:30.302Z,16.37
2023-02-08T19:52:00.161Z,15.93
2023-02-08T19:54:29.948Z,13.03
2023-02-08T19:56:59.835Z,15.53
2023-02-08T19:59:35.300Z,12.47
2023-02-08T20:02:06.264Z,15.00
2023-02-08T20:04:36.156Z,17.07
2023-02-08T20:07:07.429Z,12.23
2023-02-08T20:09:37.429Z,16.43
2023-02-08T20:12:08.634Z,16.33
2023-02-08T20:14:39.902Z,16.63
2023-02-08T20:17:09.661Z,16.97
2023-02-08T20:19:39.500Z,16.73
2023-02-08T20:22:11.503Z,19.23
2023-02-08T20:24:41.589Z,18.73
2023-02-08T20:27:11.770Z,23.98
2023-02-08T20:29:41.606Z,17.30
2023-02-08T20:32:12.844Z,17.80
2023-02-08T20:34:50.672Z,18.80
2023-02-08T20:37:14.072Z,16.37
2023-02-08T20:39:44.052Z,18.03
2023-02-08T20:42:15.087Z,16.77
2023-02-08T20:44:45.281Z,19.63
2023-02-08T20:47:16.701Z,19.70
2023-02-08T20:49:47.078Z,18.43
2023-02-08T20:52:17.632Z,16.80
2023-02-08T20:54:47.838Z,18.47
2023-02-08T20:57:19.381Z,21.57
2023-02-08T20:59:51.342Z,18.57
2023-02-08T21:02:23.360Z,17.80
2023-02-08T21:04:53.507Z,21.55
2023-02-08T21:07:23.309Z,20.50
2023-02-08T21:09:53.117Z,19.50
2023-02-08T21:12:22.988Z,23.62
2023-02-08T21:14:52.878Z,22.67
2023-02-08T21:17:22.704Z,20.83
2023-02-08T21:19:52.573Z,20.93
2023-02-08T21:22:22.366Z,34.75
2023-02-08T21:24:52.103Z,19.43
2023-02-08T21:27:23.584Z,18.27
2023-02-08T21:29:53.353Z,23.67
2023-02-08T21:32:22.995Z,25.30
2023-02-08T21:34:53.029Z,24.60
2023-02-08T21:37:22.898Z,19.83
2023-02-08T21:39:52.655Z,21.00
2023-02-08T21:42:22.713Z,18.50
2023-02-08T21:44:52.692Z,22.23
2023-02-08T21:47:22.516Z,14.20
2023-02-08T21:50:09.882Z,15.23
2023-02-08T21:52:56.970Z,15.45
2023-02-08T21:55:26.759Z,13.83
2023-02-08T21:57:56.589Z,14.63
2023-02-08T22:00:26.510Z,14.80
2023-02-08T22:02:56.657Z,13.03
2023-02-08T22:05:26.464Z,16.07
2023-02-08T22:07:59.214Z,17.97
2023-02-08T22:10:31.719Z,18.12
2023-02-08T22:13:01.649Z,15.43
2023-02-08T22:15:31.938Z,13.60
2023-02-08T22:18:03.554Z,15.90
2023-02-08T22:20:33.272Z,15.23
2023-02-08T22:23:03.296Z,12.93
2023-02-08T22:25:33.539Z,17.10
2023-02-08T22:28:03.750Z,13.05
2023-02-08T22:30:33.538Z,15.40
2023-02-08T22:33:03.470Z,17.23
2023-02-08T22:35:33.304Z,14.20
2023-02-08T22:38:03.373Z,13.40
2023-02-08T22:40:33.227Z,12.75
2023-02-08T22:43:02.978Z,11.50
2023-02-08T22:45:32.845Z,18.80
2023-02-08T22:48:02.662Z,14.37
2023-02-08T22:50:32.463Z,17.80
2023-02-08T22:53:02.294Z,12.70
2023-02-08T22:55:32.044Z,14.97
2023-02-08T22:58:02.077Z,15.80
2023-02-08T23:00:31.721Z,18.27
2023-02-08T23:03:01.596Z,17.47
2023-02-08T23:05:31.443Z,16.30
2023-02-08T23:08:01.184Z,22.83
2023-02-08T23:10:30.675Z,14.70
2023-02-08T23:13:00.760Z,18.00
2023-02-08T23:15:30.896Z,17.52
2023-02-08T23:18:00.999Z,18.82
2023-02-08T23:20:31.063Z,11.65
2023-02-08T23:23:01.192Z,15.15
2023-02-08T23:25:30.947Z,15.10
2023-02-08T23:28:01.182Z,14.58
2023-02-08T23:30:31.104Z,13.27
2023-02-08T23:33:01.261Z,12.55
2023-02-08T23:35:31.110Z,11.93
2023-02-08T23:38:01.598Z,13.20
2023-02-08T23:40:31.411Z,11.03
2023-02-08T23:43:01.509Z,17.23
2023-02-08T23:45:32.738Z,15.97
2023-02-08T23:48:02.874Z,16.10
2023-02-08T23:50:32.659Z,12.03
2023-02-08T23:53:02.803Z,14.87
2023-02-08T23:55:32.690Z,13.30
2023-02-08T23:58:02.736Z,11.12
